createdAt,value
2017-09-13T00:00:26.558Z,75.07
2017-09-13T00:01:26.601Z,75.07
2017-09-13T00:02:26.597Z,75.26
2017-09-13T00:03:26.618Z,75.07
2017-09-13T00:04:26.642Z,75.07
2017-09-13T00:05:26.659Z,74.98
2017-09-13T00:06:26.997Z,74.98
2017-09-13T00:07:26.746Z,74.88
2017-09-13T00:08:26.719Z,75.51
2017-09-13T00:09:26.739Z,75.51
2017-09-13T00:10:26.759Z,75.26
2017-09-13T00:11:26.780Z,74.88
2017-09-13T00:12:26.799Z,74.98
2017-09-13T00:13:26.820Z,75.35
2017-09-13T00:14:26.849Z,74.69
2017-09-13T00:15:26.862Z,74.98
2017-09-13T00:16:26.887Z,74.88
2017-09-13T00:17:26.900Z,75.16
2017-09-13T00:18:26.921Z,75.07
2017-09-13T00:19:26.940Z,74.59
2017-09-13T00:20:26.958Z,74.4
2017-09-13T00:21:26.982Z,74.69
2017-09-13T00:22:27.002Z,74.69
2017-09-13T00:23:27.384Z,74.49
2017-09-13T00:24:27.041Z,75.03
2017-09-13T00:25:27.059Z,75.26
2017-09-13T00:26:27.082Z,74.69
2017-09-13T00:27:27.110Z,74.49
2017-09-13T00:28:27.124Z,75.32
2017-09-13T00:29:27.142Z,74.49
2017-09-13T00:30:27.368Z,75.32
2017-09-13T00:31:27.184Z,75.35
2017-09-13T00:32:27.198Z,75.42
2017-09-13T00:33:27.219Z,75.22
2017-09-13T00:34:27.240Z,75.42
2017-09-13T00:35:27.258Z,75.6
2017-09-13T00:36:27.278Z,75.6
2017-09-13T00:37:27.300Z,75.32
2017-09-13T00:38:27.367Z,76.37
2017-09-13T00:39:27.341Z,75.7
2017-09-13T00:40:27.361Z,75.89
2017-09-13T00:41:27.384Z,75.89
2017-09-13T00:42:27.398Z,75.7
2017-09-13T00:43:27.422Z,75.51
2017-09-13T00:44:27.444Z,75.7
2017-09-13T00:45:27.459Z,75.79
2017-09-13T00:46:27.481Z,75.98
2017-09-13T00:47:27.499Z,76.65
2017-09-13T00:48:27.519Z,75.42
2017-09-13T00:49:27.546Z,76.27
2017-09-13T00:50:27.556Z,76.46
2017-09-13T00:51:27.588Z,75.79
2017-09-13T00:52:27.596Z,75.42
2017-09-13T00:53:27.666Z,75.79
2017-09-13T00:54:27.639Z,76.46
2017-09-13T00:55:27.656Z,75.98
2017-09-13T00:56:27.673Z,75.79
2017-09-13T00:57:27.694Z,75.51
2017-09-13T00:58:27.714Z,75.42
2017-09-13T00:59:27.742Z,74.84
2017-09-13T01:00:27.762Z,75.13
2017-09-13T01:01:27.776Z,75.03
2017-09-13T01:02:27.797Z,74.84
2017-09-13T01:03:27.819Z,75.32
2017-09-13T01:04:27.834Z,74.74
2017-09-13T01:05:27.856Z,74.46
2017-09-13T01:06:27.874Z,75.22
2017-09-13T01:07:27.897Z,75.89
2017-09-13T01:08:27.924Z,75.79
2017-09-13T01:09:27.985Z,75.79
2017-09-13T01:10:27.950Z,75.51
2017-09-13T01:11:27.967Z,75.79
2017-09-13T01:12:27.991Z,75.79
2017-09-13T01:13:28.346Z,75.89
2017-09-13T01:14:28.032Z,75.98
2017-09-13T01:15:28.051Z,75.32
2017-09-13T01:16:28.075Z,75.03
2017-09-13T01:17:28.090Z,75.51
2017-09-13T01:18:28.107Z,75.32
2017-09-13T01:19:28.129Z,75.51
2017-09-13T01:20:28.154Z,75.22
2017-09-13T01:21:28.174Z,75.51
2017-09-13T01:22:28.191Z,75.18
2017-09-13T01:23:28.211Z,75.18
2017-09-13T01:24:28.276Z,75.18
2017-09-13T01:25:28.247Z,75.76
2017-09-13T01:26:28.266Z,75.47
2017-09-13T01:27:28.291Z,75.47
2017-09-13T01:28:28.306Z,75.47
2017-09-13T01:29:28.325Z,75.09
2017-09-13T01:30:28.345Z,74.8
2017-09-13T01:31:28.363Z,74.8
2017-09-13T01:32:28.384Z,74.8
2017-09-13T01:33:28.401Z,74.52
2017-09-13T01:34:28.429Z,74.99
2017-09-13T01:35:28.443Z,74.9
2017-09-13T01:36:28.459Z,74.61
2017-09-13T01:37:28.489Z,74.8
2017-09-13T01:38:28.508Z,74.61
2017-09-13T01:39:28.573Z,74.52
2017-09-13T01:40:28.537Z,74.32
2017-09-13T01:41:28.558Z,74.52
2017-09-13T01:42:28.598Z,75.18
2017-09-13T01:43:28.596Z,74.8
2017-09-13T01:44:28.622Z,74.52
2017-09-13T01:45:28.641Z,74.42
2017-09-13T01:46:28.659Z,74.61
2017-09-13T01:47:28.679Z,74.32
2017-09-13T01:48:28.701Z,74.61
2017-09-13T01:49:28.718Z,74.52
2017-09-13T01:50:28.734Z,74.52
2017-09-13T01:51:28.752Z,73.94
2017-09-13T01:52:28.774Z,74.61
2017-09-13T01:53:28.799Z,74.52
2017-09-13T01:54:28.820Z,74.52
2017-09-13T01:55:28.832Z,74.8
2017-09-13T01:56:28.851Z,74.42
2017-09-13T01:57:28.920Z,74.52
2017-09-13T01:58:28.892Z,74.61
2017-09-13T01:59:28.910Z,74.52
2017-09-13T02:00:28.934Z,74.42
2017-09-13T02:01:28.950Z,74.23
2017-09-13T02:02:28.966Z,73.94
2017-09-13T02:03:28.986Z,74.04
2017-09-13T02:04:29.008Z,73.75
2017-09-13T02:05:29.023Z,74.13
2017-09-13T02:06:29.044Z,73.85
2017-09-13T02:07:29.061Z,74.13
2017-09-13T02:08:29.083Z,73.75
2017-09-13T02:09:29.105Z,74.04
2017-09-13T02:10:29.121Z,74.04
2017-09-13T02:11:29.140Z,73.56
2017-09-13T02:12:29.213Z,73.47
2017-09-13T02:13:29.176Z,74.04
2017-09-13T02:14:29.524Z,73.28
2017-09-13T02:15:29.217Z,73.47
2017-09-13T02:16:29.235Z,73.66
2017-09-13T02:17:29.256Z,73.66
2017-09-13T02:18:29.316Z,73.28
2017-09-13T02:19:29.292Z,73.14
2017-09-13T02:20:29.628Z,73.47
2017-09-13T02:21:29.332Z,73.94
2017-09-13T02:22:29.353Z,73.28
2017-09-13T02:23:29.371Z,72.8
2017-09-13T02:24:29.390Z,72.8
2017-09-13T02:25:29.412Z,73.56
2017-09-13T02:26:29.428Z,72.89
2017-09-13T02:27:29.447Z,72.71
2017-09-13T02:28:29.467Z,72.89
2017-09-13T02:29:29.792Z,72.32
2017-09-13T02:30:29.502Z,71.94
2017-09-13T02:31:29.523Z,72.13
2017-09-13T02:32:29.540Z,72.99
2017-09-13T02:33:29.562Z,72.51
2017-09-13T02:34:29.582Z,72.51
2017-09-13T02:35:29.602Z,72.71
2017-09-13T02:36:29.620Z,72.8
2017-09-13T02:37:29.794Z,71.94
2017-09-13T02:38:29.739Z,72.13
2017-09-13T02:39:29.675Z,72.03
2017-09-13T02:40:29.695Z,72.61
2017-09-13T02:41:29.726Z,72.42
2017-09-13T02:42:30.053Z,72.51
2017-09-13T02:43:29.755Z,72.51
2017-09-13T02:44:29.773Z,71.75
2017-09-13T02:45:29.793Z,72.03
2017-09-13T02:46:29.814Z,71.94
2017-09-13T02:47:29.833Z,71.84
2017-09-13T02:48:29.844Z,71.94
2017-09-13T02:49:29.865Z,72.03
2017-09-13T02:50:29.887Z,71.94
2017-09-13T02:51:29.910Z,71.46
2017-09-13T02:52:29.929Z,71.46
2017-09-13T02:53:30.257Z,71.08
2017-09-13T02:54:29.961Z,71.37
2017-09-13T02:55:31.237Z,71.46
2017-09-13T02:56:30.015Z,71.75
2017-09-13T02:57:30.028Z,71.75
2017-09-13T02:58:30.041Z,71.37
2017-09-13T02:59:30.065Z,71.94
2017-09-13T03:00:30.081Z,71.66
2017-09-13T03:01:30.099Z,71.37
2017-09-13T03:02:30.122Z,71.66
2017-09-13T03:03:30.136Z,71.37
2017-09-13T03:04:30.154Z,70.98
2017-09-13T03:05:30.179Z,71.46
2017-09-13T03:06:30.194Z,70.98
2017-09-13T03:07:30.212Z,71.18
2017-09-13T03:08:30.231Z,71.66
2017-09-13T03:09:30.252Z,71.37
2017-09-13T03:10:30.634Z,71.18
2017-09-13T03:11:30.290Z,71.66
2017-09-13T03:12:30.307Z,71.37
2017-09-13T03:13:30.334Z,71.08
2017-09-13T03:14:30.353Z,70.98
2017-09-13T03:15:30.371Z,70.79
2017-09-13T03:16:30.386Z,71.18
2017-09-13T03:17:30.406Z,71.08
2017-09-13T03:18:30.427Z,71.08
2017-09-13T03:19:30.446Z,70.98
2017-09-13T03:20:30.464Z,70.98
2017-09-13T03:21:30.485Z,71.18
2017-09-13T03:22:30.502Z,71.27
2017-09-13T03:23:30.525Z,71.27
2017-09-13T03:24:30.548Z,70.89
2017-09-13T03:25:30.560Z,70.89
2017-09-13T03:26:30.581Z,70.51
2017-09-13T03:27:30.599Z,70.51
2017-09-13T03:28:30.620Z,70.51
2017-09-13T03:29:30.692Z,70.32
2017-09-13T03:30:30.971Z,70.13
2017-09-13T03:31:30.686Z,70.42
2017-09-13T03:32:30.693Z,70.42
2017-09-13T03:33:30.714Z,70.61
2017-09-13T03:34:30.734Z,70.79
2017-09-13T03:35:30.754Z,70.79
2017-09-13T03:36:30.775Z,70.7
2017-09-13T03:37:30.789Z,70.7
2017-09-13T03:38:30.816Z,70.51
2017-09-13T03:39:30.834Z,70.32
2017-09-13T03:40:30.850Z,70.32
2017-09-13T03:41:30.871Z,70.79
2017-09-13T03:42:30.886Z,70.51
2017-09-13T03:43:30.907Z,70.61
2017-09-13T03:44:30.924Z,70.22
2017-09-13T03:45:30.954Z,70.42
2017-09-13T03:46:30.970Z,70.42
2017-09-13T03:47:31.037Z,70.32
2017-09-13T03:48:31.004Z,70.03
2017-09-13T03:49:31.022Z,69.17
2017-09-13T03:50:31.043Z,69.27
2017-09-13T03:51:31.064Z,69.27
2017-09-13T03:52:31.085Z,69.37
2017-09-13T03:53:31.097Z,69.56
2017-09-13T03:54:31.122Z,69.65
2017-09-13T03:55:31.136Z,69.37
2017-09-13T03:56:31.156Z,69.46
2017-09-13T03:57:31.176Z,69.08
2017-09-13T03:58:31.196Z,69.37
2017-09-13T03:59:31.219Z,68.79
2017-09-13T04:00:31.237Z,69.46
2017-09-13T04:01:31.256Z,69.37
2017-09-13T04:02:31.334Z,69.46
2017-09-13T04:03:31.289Z,69.17
2017-09-13T04:04:31.309Z,69.27
2017-09-13T04:05:31.329Z,69.27
2017-09-13T04:06:31.348Z,69.37
2017-09-13T04:07:31.367Z,69.65
2017-09-13T04:08:31.389Z,69.74
2017-09-13T04:09:31.411Z,69.65
2017-09-13T04:10:31.425Z,69.74
2017-09-13T04:11:31.445Z,69.93
2017-09-13T04:12:31.466Z,69.84
2017-09-13T04:13:31.488Z,70.51
2017-09-13T04:14:31.505Z,69.65
2017-09-13T04:15:31.521Z,70.51
2017-09-13T04:16:31.543Z,70.51
2017-09-13T04:17:31.613Z,70.42
2017-09-13T04:18:31.891Z,70.61
2017-09-13T04:19:31.602Z,70.51
2017-09-13T04:20:31.622Z,70.98
2017-09-13T04:21:31.643Z,70.79
2017-09-13T04:22:31.663Z,70.03
2017-09-13T04:23:31.679Z,70.61
2017-09-13T04:24:31.699Z,70.42
2017-09-13T04:25:31.721Z,70.61
2017-09-13T04:26:31.737Z,70.42
2017-09-13T04:27:31.756Z,70.61
2017-09-13T04:28:31.775Z,70.32
2017-09-13T04:29:31.793Z,70.61
2017-09-13T04:30:31.819Z,70.51
2017-09-13T04:31:31.855Z,71.46
2017-09-13T04:32:31.905Z,70.98
2017-09-13T04:33:31.875Z,71.27
2017-09-13T04:34:31.890Z,71.18
2017-09-13T04:35:31.906Z,71.66
2017-09-13T04:36:31.931Z,71.72
2017-09-13T04:37:31.953Z,72.03
2017-09-13T04:38:31.965Z,71.46
2017-09-13T04:39:31.988Z,71.84
2017-09-13T04:40:32.008Z,71.91
2017-09-13T04:41:32.022Z,72.57
2017-09-13T04:42:32.046Z,71.91
2017-09-13T04:43:32.061Z,72
2017-09-13T04:44:32.079Z,72.32
2017-09-13T04:45:32.101Z,72.32
2017-09-13T04:46:32.142Z,72.03
2017-09-13T04:47:32.144Z,72.32
2017-09-13T04:48:32.165Z,72.13
2017-09-13T04:49:32.231Z,72.03
2017-09-13T04:50:32.197Z,71.75
2017-09-13T04:51:32.219Z,72.03
2017-09-13T04:52:32.236Z,72.13
2017-09-13T04:53:32.253Z,71.75
2017-09-13T04:54:32.274Z,72.03
2017-09-13T04:55:32.606Z,72.19
2017-09-13T04:56:32.316Z,73.14
2017-09-13T04:57:32.332Z,72.67
2017-09-13T04:58:32.349Z,72.28
2017-09-13T04:59:32.370Z,72.67
2017-09-13T05:00:32.389Z,73.05
2017-09-13T05:01:32.428Z,73.24
2017-09-13T05:02:32.431Z,72.38
2017-09-13T05:03:32.447Z,72.76
2017-09-13T05:04:32.520Z,72.61
2017-09-13T05:05:32.484Z,72.42
2017-09-13T05:06:32.506Z,71.84
2017-09-13T05:07:32.522Z,71.81
2017-09-13T05:08:32.544Z,71.91
2017-09-13T05:09:32.567Z,72.09
2017-09-13T05:10:32.580Z,72.48
2017-09-13T05:11:32.600Z,72.19
2017-09-13T05:12:32.621Z,73.05
2017-09-13T05:13:32.644Z,72.38
2017-09-13T05:14:32.708Z,73.05
2017-09-13T05:15:32.685Z,72.38
2017-09-13T05:16:32.734Z,72.48
2017-09-13T05:17:32.718Z,72.19
2017-09-13T05:18:32.734Z,72.28
2017-09-13T05:19:32.803Z,72.8
2017-09-13T05:20:32.772Z,73.05
2017-09-13T05:21:32.790Z,72.03
2017-09-13T05:22:32.811Z,71.84
2017-09-13T05:23:32.830Z,71.75
2017-09-13T05:24:32.849Z,72.03
2017-09-13T05:25:32.870Z,71.66
2017-09-13T05:26:32.884Z,71.33
2017-09-13T05:27:32.904Z,71.72
2017-09-13T05:28:32.927Z,71.66
2017-09-13T05:29:32.943Z,72.09
2017-09-13T05:30:32.964Z,71.84
2017-09-13T05:31:32.997Z,72.03
2017-09-13T05:32:33.005Z,71.66
2017-09-13T05:33:33.020Z,71.46
2017-09-13T05:34:33.038Z,71.91
2017-09-13T05:35:33.057Z,72
2017-09-13T05:36:33.077Z,72
2017-09-13T05:37:33.146Z,71.72
2017-09-13T05:38:33.124Z,71.84
2017-09-13T05:39:33.142Z,71.84
2017-09-13T05:40:33.155Z,71.84
2017-09-13T05:41:33.170Z,71.75
2017-09-13T05:42:33.194Z,71.75
2017-09-13T05:43:33.215Z,71.27
2017-09-13T05:44:33.234Z,71.66
2017-09-13T05:45:33.250Z,71.66
2017-09-13T05:46:33.289Z,71.62
2017-09-13T05:47:33.292Z,71.52
2017-09-13T05:48:33.312Z,71.43
2017-09-13T05:49:33.332Z,71.43
2017-09-13T05:50:33.348Z,71.91
2017-09-13T05:51:33.680Z,71.72
2017-09-13T05:52:33.391Z,71.46
2017-09-13T05:53:33.434Z,71.08
2017-09-13T05:54:33.434Z,71.18
2017-09-13T05:55:33.445Z,71.27
2017-09-13T05:56:33.514Z,71.04
2017-09-13T05:57:33.482Z,71.08
2017-09-13T05:58:33.502Z,70.61
2017-09-13T05:59:33.837Z,70.32
2017-09-13T06:00:33.542Z,70.13
2017-09-13T06:01:33.569Z,69.93
2017-09-13T06:02:33.582Z,69.27
2017-09-13T06:03:33.603Z,69.27
2017-09-13T06:04:33.934Z,69.21
2017-09-13T06:05:33.642Z,68.82
2017-09-13T06:06:33.664Z,68.54
2017-09-13T06:07:33.738Z,68.06
2017-09-13T06:08:33.702Z,68.26
2017-09-13T06:09:33.721Z,67.4
2017-09-13T06:10:33.738Z,67.21
2017-09-13T06:11:34.065Z,67.4
2017-09-13T06:12:33.788Z,67.14
2017-09-13T06:13:33.807Z,66.76
2017-09-13T06:14:33.821Z,66.95
2017-09-13T06:15:33.837Z,66.76
2017-09-13T06:16:33.864Z,66.66
2017-09-13T06:17:33.928Z,65.8
2017-09-13T06:18:33.898Z,66
2017-09-13T06:19:33.920Z,65.64
2017-09-13T06:20:33.940Z,66.19
2017-09-13T06:21:33.957Z,66.03
2017-09-13T06:22:33.978Z,65.71
2017-09-13T06:23:34.001Z,65.07
2017-09-13T06:24:34.020Z,64.88
2017-09-13T06:25:34.048Z,64.94
2017-09-13T06:26:34.064Z,64.69
2017-09-13T06:27:34.081Z,64.75
2017-09-13T06:28:34.101Z,65.04
2017-09-13T06:29:34.122Z,64.78
2017-09-13T06:30:34.144Z,63.93
2017-09-13T06:31:34.162Z,64.4
2017-09-13T06:32:34.180Z,64.31
2017-09-13T06:33:34.251Z,63.83
2017-09-13T06:34:34.222Z,63.35
2017-09-13T06:35:34.242Z,64.02
2017-09-13T06:36:34.264Z,63.76
2017-09-13T06:37:34.284Z,63.54
2017-09-13T06:38:34.681Z,63.64
2017-09-13T06:39:34.324Z,63.54
2017-09-13T06:40:34.352Z,63.57
2017-09-13T06:41:34.370Z,63.57
2017-09-13T06:42:34.393Z,62.52
2017-09-13T06:43:34.413Z,62.43
2017-09-13T06:44:34.430Z,62.62
2017-09-13T06:45:34.452Z,62.24
2017-09-13T06:46:34.470Z,62.24
2017-09-13T06:47:34.489Z,61.57
2017-09-13T06:48:34.567Z,61.28
2017-09-13T06:49:34.533Z,61.09
2017-09-13T06:50:34.559Z,61.85
2017-09-13T06:51:34.582Z,62.33
2017-09-13T06:52:34.598Z,60.99
2017-09-13T06:53:34.618Z,61.47
2017-09-13T06:54:34.649Z,61.02
2017-09-13T06:55:34.659Z,60.64
2017-09-13T06:56:34.681Z,60.26
2017-09-13T06:57:34.699Z,59.78
2017-09-13T06:58:34.728Z,59.97
2017-09-13T06:59:34.741Z,59.97
2017-09-13T07:00:34.764Z,59.78
2017-09-13T07:01:34.788Z,59.3
2017-09-13T07:02:34.806Z,59.52
2017-09-13T07:03:34.829Z,59.43
2017-09-13T07:04:34.854Z,59.33
2017-09-13T07:05:35.069Z,58.95
2017-09-13T07:06:34.893Z,59.69
2017-09-13T07:07:34.911Z,59.59
2017-09-13T07:08:34.934Z,59.4
2017-09-13T07:09:34.955Z,59.2
2017-09-13T07:10:34.983Z,58.92
2017-09-13T07:11:35.004Z,58.73
2017-09-13T07:12:35.022Z,58.63
2017-09-13T07:13:35.043Z,58.34
2017-09-13T07:14:35.062Z,58.15
2017-09-13T07:15:35.085Z,58.73
2017-09-13T07:16:35.110Z,58.73
2017-09-13T07:17:35.152Z,58.34
2017-09-13T07:18:35.460Z,58.25
2017-09-13T07:19:35.170Z,57.77
2017-09-13T07:20:35.191Z,57.87
2017-09-13T07:21:35.217Z,58.25
2017-09-13T07:22:35.237Z,58.06
2017-09-13T07:23:35.261Z,57.39
2017-09-13T07:24:35.281Z,57.97
2017-09-13T07:25:35.297Z,57.97
2017-09-13T07:26:35.317Z,58.06
2017-09-13T07:27:35.342Z,58.09
2017-09-13T07:28:35.364Z,57.61
2017-09-13T07:29:35.390Z,57.32
2017-09-13T07:30:35.407Z,57.51
2017-09-13T07:31:35.428Z,57.04
2017-09-13T07:32:35.770Z,56.46
2017-09-13T07:33:35.475Z,56.39
2017-09-13T07:34:35.503Z,55.91
2017-09-13T07:35:35.515Z,56.87
2017-09-13T07:36:35.535Z,56.2
2017-09-13T07:37:35.611Z,56.2
2017-09-13T07:38:35.583Z,55.73
2017-09-13T07:39:35.600Z,55.82
2017-09-13T07:40:35.628Z,56.3
2017-09-13T07:41:35.652Z,55.65
2017-09-13T07:42:35.665Z,56.01
2017-09-13T07:43:35.687Z,56.39
2017-09-13T07:44:35.713Z,57.06
2017-09-13T07:45:35.734Z,57.54
2017-09-13T07:46:35.769Z,57.32
2017-09-13T07:47:35.776Z,57.42
2017-09-13T07:48:35.806Z,58.86
2017-09-13T07:49:35.822Z,58.56
2017-09-13T07:50:35.843Z,58.47
2017-09-13T07:51:35.865Z,58.59
2017-09-13T07:52:35.890Z,58.66
2017-09-13T07:53:35.910Z,58.79
2017-09-13T07:54:35.939Z,59.14
2017-09-13T07:55:35.960Z,58.98
2017-09-13T07:56:36.026Z,58.86
2017-09-13T07:57:35.990Z,58.66
2017-09-13T07:58:36.015Z,58.5
2017-09-13T07:59:36.348Z,58.59
2017-09-13T08:00:36.065Z,58.12
2017-09-13T08:01:36.079Z,58.4
2017-09-13T08:02:36.102Z,58.88
2017-09-13T08:03:36.126Z,57.83
2017-09-13T08:04:36.496Z,58.22
2017-09-13T08:05:36.168Z,58.12
2017-09-13T08:06:36.189Z,57.57
2017-09-13T08:07:36.210Z,57.57
2017-09-13T08:08:36.240Z,56.52
2017-09-13T08:09:36.255Z,56.04
2017-09-13T08:10:36.591Z,57.09
2017-09-13T08:11:36.301Z,56.3
2017-09-13T08:12:36.629Z,56.32
2017-09-13T08:13:36.344Z,56.87
2017-09-13T08:14:36.365Z,57.64
2017-09-13T08:15:36.386Z,57.48
2017-09-13T08:16:36.413Z,56.99
2017-09-13T08:17:36.433Z,56.81
2017-09-13T08:18:36.459Z,55.85
2017-09-13T08:19:36.483Z,56.61
2017-09-13T08:20:36.499Z,56.23
2017-09-13T08:21:36.524Z,55.94
2017-09-13T08:22:36.544Z,56.52
2017-09-13T08:23:36.563Z,57.28
2017-09-13T08:24:36.585Z,56.13
2017-09-13T08:25:36.608Z,55.94
2017-09-13T08:26:36.635Z,56.04
2017-09-13T08:27:36.654Z,55.75
2017-09-13T08:28:36.674Z,55.4
2017-09-13T08:29:36.697Z,55.46
2017-09-13T08:30:36.724Z,55.85
2017-09-13T08:31:36.792Z,55.08
2017-09-13T08:32:36.771Z,55.56
2017-09-13T08:33:36.787Z,55.94
2017-09-13T08:34:36.810Z,55.65
2017-09-13T08:35:36.836Z,55.65
2017-09-13T08:36:36.856Z,55.94
2017-09-13T08:37:36.877Z,55.94
2017-09-13T08:38:36.901Z,56.42
2017-09-13T08:39:36.919Z,56.81
2017-09-13T08:40:36.948Z,56.61
2017-09-13T08:41:36.964Z,57.16
2017-09-13T08:42:37.006Z,57.19
2017-09-13T08:43:37.011Z,56.99
2017-09-13T08:44:37.028Z,56.61
2017-09-13T08:45:37.057Z,57.28
2017-09-13T08:46:37.125Z,56.42
2017-09-13T08:47:37.101Z,55.78
2017-09-13T08:48:37.275Z,56.16
2017-09-13T08:49:37.140Z,56.07
2017-09-13T08:50:37.174Z,55.68
2017-09-13T08:51:37.238Z,55.68
2017-09-13T08:52:37.206Z,55.97
2017-09-13T08:53:37.231Z,55.87
2017-09-13T08:54:37.253Z,55.01
2017-09-13T08:55:37.273Z,55.4
2017-09-13T08:56:37.307Z,55.4
2017-09-13T08:57:37.331Z,55.78
2017-09-13T08:58:37.345Z,54.85
2017-09-13T08:59:37.364Z,54.75
2017-09-13T09:00:37.388Z,55.3
2017-09-13T09:01:37.418Z,55.04
2017-09-13T09:02:37.440Z,53.89
2017-09-13T09:03:37.476Z,53.89
2017-09-13T09:04:37.476Z,54.08
2017-09-13T09:05:37.503Z,54.72
2017-09-13T09:06:37.527Z,54.66
2017-09-13T09:07:37.546Z,54.56
2017-09-13T09:08:37.572Z,54.17
2017-09-13T09:09:37.588Z,53.5
2017-09-13T09:10:37.927Z,53.6
2017-09-13T09:11:37.636Z,53.91
2017-09-13T09:12:37.674Z,52.86
2017-09-13T09:13:37.687Z,52.02
2017-09-13T09:14:37.710Z,52.02
2017-09-13T09:15:37.731Z,52.02
2017-09-13T09:16:37.749Z,51.42
2017-09-13T09:17:37.775Z,52.22
2017-09-13T09:18:38.112Z,51.73
2017-09-13T09:19:38.132Z,51.54
2017-09-13T09:20:37.845Z,51.45
2017-09-13T09:21:37.863Z,50.87
2017-09-13T09:22:37.890Z,51.54
2017-09-13T09:23:37.913Z,51.54
2017-09-13T09:24:37.936Z,51.73
2017-09-13T09:25:37.961Z,51.35
2017-09-13T09:26:37.982Z,50.78
2017-09-13T09:27:38.066Z,50.78
2017-09-13T09:28:38.033Z,50.96
2017-09-13T09:29:38.057Z,50.68
2017-09-13T09:30:38.080Z,50.8
2017-09-13T09:31:38.097Z,50.61
2017-09-13T09:32:38.180Z,50.23
2017-09-13T09:33:38.148Z,49.67
2017-09-13T09:34:38.480Z,49.48
2017-09-13T09:35:38.200Z,49.29
2017-09-13T09:36:38.226Z,49
2017-09-13T09:37:38.242Z,48.54
2017-09-13T09:38:38.267Z,48.45
2017-09-13T09:39:38.288Z,47.87
2017-09-13T09:40:38.317Z,47.87
2017-09-13T09:41:38.338Z,47.58
2017-09-13T09:42:38.359Z,48.13
2017-09-13T09:43:38.394Z,48.64
2017-09-13T09:44:38.438Z,47.77
2017-09-13T09:45:38.483Z,48.13
2017-09-13T09:46:38.458Z,48.33
2017-09-13T09:47:38.482Z,47.68
2017-09-13T09:48:38.512Z,47.87
2017-09-13T09:49:38.846Z,47.68
2017-09-13T09:50:38.551Z,47.77
2017-09-13T09:51:38.603Z,47.68
2017-09-13T09:52:38.615Z,46.62
2017-09-13T09:53:38.641Z,47
2017-09-13T09:54:38.654Z,46.91
2017-09-13T09:55:38.689Z,46.53
2017-09-13T09:56:38.701Z,46.33
2017-09-13T09:57:38.726Z,47.36
2017-09-13T09:58:38.746Z,46.33
2017-09-13T09:59:38.783Z,47
2017-09-13T10:00:38.799Z,46.62
2017-09-13T10:01:38.822Z,46.33
2017-09-13T10:02:38.845Z,46.72
2017-09-13T10:03:38.880Z,46.91
2017-09-13T10:04:38.893Z,46.04
2017-09-13T10:05:38.934Z,46.81
2017-09-13T10:06:38.943Z,46.45
2017-09-13T10:07:38.970Z,46.43
2017-09-13T10:08:38.995Z,45.97
2017-09-13T10:09:39.018Z,46.26
2017-09-13T10:10:39.349Z,46.64
2017-09-13T10:11:39.063Z,47.31
2017-09-13T10:12:39.089Z,47.61
2017-09-13T10:13:39.149Z,49.05
2017-09-13T10:14:39.143Z,50.61
2017-09-13T10:15:39.176Z,50.9
2017-09-13T10:16:39.196Z,48.49
2017-09-13T10:17:39.277Z,48.61
2017-09-13T10:18:39.240Z,49.07
2017-09-13T10:19:39.308Z,48.4
2017-09-13T10:20:39.293Z,48.4
2017-09-13T10:21:39.320Z,49.17
2017-09-13T10:22:39.341Z,49.55
2017-09-13T10:23:39.375Z,49.72
2017-09-13T10:24:39.393Z,51.35
2017-09-13T10:25:39.419Z,52.42
2017-09-13T10:26:39.451Z,54.99
2017-09-13T10:27:39.473Z,55.91
2017-09-13T10:28:39.490Z,56.01
2017-09-13T10:29:39.524Z,56.49
2017-09-13T10:30:39.558Z,58.61
2017-09-13T10:31:39.568Z,61.84
2017-09-13T10:32:39.596Z,62.52
2017-09-13T10:33:39.929Z,65.27
2017-09-13T10:34:39.637Z,65.17
2017-09-13T10:35:39.666Z,66.86
2017-09-13T10:36:39.736Z,66.58
2017-09-13T10:37:39.717Z,65.33
2017-09-13T10:38:39.735Z,65.49
2017-09-13T10:39:39.757Z,65.68
2017-09-13T10:40:39.783Z,66.55
2017-09-13T10:41:39.806Z,65.2
2017-09-13T10:42:39.835Z,65.68
2017-09-13T10:43:39.854Z,66.74
2017-09-13T10:44:39.881Z,66.93
2017-09-13T10:45:39.910Z,67.79
2017-09-13T10:46:39.925Z,70.19
2017-09-13T10:47:39.945Z,70.38
2017-09-13T10:48:39.972Z,70.19
2017-09-13T10:49:39.992Z,71.82
2017-09-13T10:50:40.019Z,73.8
2017-09-13T10:51:40.090Z,71.98
2017-09-13T10:52:40.061Z,73.13
2017-09-13T10:53:40.087Z,72.17
2017-09-13T10:54:40.111Z,71.98
2017-09-13T10:55:40.135Z,72.45
2017-09-13T10:56:40.163Z,71.69
2017-09-13T10:57:40.179Z,75.23
2017-09-13T10:58:40.202Z,73.8
2017-09-13T10:59:40.225Z,73.61
2017-09-13T11:00:40.249Z,73.03
2017-09-13T11:01:40.278Z,73.9
2017-09-13T11:02:40.291Z,76.25
2017-09-13T11:03:40.313Z,75.39
2017-09-13T11:04:40.342Z,74.08
2017-09-13T11:05:40.363Z,74.37
2017-09-13T11:06:40.385Z,73.61
2017-09-13T11:07:40.405Z,73.61
2017-09-13T11:08:40.426Z,73.61
2017-09-13T11:09:40.454Z,72.27
2017-09-13T11:10:40.535Z,72.84
2017-09-13T11:11:40.502Z,72.27
2017-09-13T11:12:40.519Z,71.98
2017-09-13T11:13:40.548Z,71.88
2017-09-13T11:14:40.565Z,72.11
2017-09-13T11:15:40.587Z,71.15
2017-09-13T11:16:40.608Z,71.15
2017-09-13T11:17:40.630Z,71.34
2017-09-13T11:18:40.657Z,70
2017-09-13T11:19:40.676Z,70.48
2017-09-13T11:20:40.701Z,70.19
2017-09-13T11:21:40.726Z,69.74
2017-09-13T11:22:40.756Z,69.84
2017-09-13T11:23:40.769Z,69.65
2017-09-13T11:24:40.790Z,69.56
2017-09-13T11:25:40.824Z,69.01
2017-09-13T11:26:40.842Z,68.53
2017-09-13T11:27:40.914Z,66.52
2017-09-13T11:28:40.889Z,66.52
2017-09-13T11:29:40.912Z,67
2017-09-13T11:30:40.930Z,67.7
2017-09-13T11:31:40.959Z,66.36
2017-09-13T11:32:41.003Z,65.88
2017-09-13T11:33:41.001Z,65.78
2017-09-13T11:34:41.033Z,65.69
2017-09-13T11:35:41.047Z,65.49
2017-09-13T11:36:41.074Z,65.33
2017-09-13T11:37:41.102Z,64.56
2017-09-13T11:38:41.121Z,64.85
2017-09-13T11:39:41.146Z,63.15
2017-09-13T11:40:41.167Z,62.38
2017-09-13T11:41:41.198Z,61.65
2017-09-13T11:42:41.274Z,61.74
2017-09-13T11:43:41.244Z,60.69
2017-09-13T11:44:41.269Z,60.04
2017-09-13T11:45:41.294Z,59.75
2017-09-13T11:46:41.321Z,59.63
2017-09-13T11:47:41.343Z,60.21
2017-09-13T11:48:41.367Z,60.75
2017-09-13T11:49:41.396Z,60.75
2017-09-13T11:50:41.414Z,60.66
2017-09-13T11:51:41.439Z,61.14
2017-09-13T11:52:41.472Z,61.23
2017-09-13T11:53:41.488Z,60.59
2017-09-13T11:54:41.516Z,60.01
2017-09-13T11:55:41.540Z,59.53
2017-09-13T11:56:41.563Z,59.53
2017-09-13T11:57:41.590Z,60.11
2017-09-13T11:58:41.611Z,59.82
2017-09-13T11:59:41.639Z,59.24
2017-09-13T12:00:41.718Z,59.24
2017-09-13T12:01:41.691Z,58.95
2017-09-13T12:02:41.713Z,58.47
2017-09-13T12:03:42.050Z,59.05
2017-09-13T12:04:42.071Z,58.18
2017-09-13T12:05:42.103Z,57.99
2017-09-13T12:06:41.813Z,58.83
2017-09-13T12:07:42.151Z,58.47
2017-09-13T12:08:41.881Z,58.15
2017-09-13T12:09:41.883Z,58.47
2017-09-13T12:10:41.909Z,58.45
2017-09-13T12:11:42.253Z,58.37
2017-09-13T12:12:41.982Z,57.9
2017-09-13T12:13:41.994Z,57.73
2017-09-13T12:14:42.005Z,56.48
2017-09-13T12:15:42.037Z,56.38
2017-09-13T12:16:42.060Z,55.83
2017-09-13T12:17:42.134Z,54.42
2017-09-13T12:18:42.423Z,54.25
2017-09-13T12:19:42.140Z,53.19
2017-09-13T12:20:42.165Z,53.67
2017-09-13T12:21:42.195Z,53.19
2017-09-13T12:22:42.216Z,52.91
2017-09-13T12:23:42.240Z,53.09
2017-09-13T12:24:42.261Z,52.91
2017-09-13T12:25:42.603Z,53.48
2017-09-13T12:26:42.323Z,53.48
2017-09-13T12:27:42.345Z,54.06
2017-09-13T12:28:42.681Z,54.52
2017-09-13T12:29:42.394Z,54.13
2017-09-13T12:30:42.417Z,54.25
2017-09-13T12:31:42.445Z,53.87
2017-09-13T12:32:42.479Z,53.29
2017-09-13T12:33:42.505Z,53.48
2017-09-13T12:34:42.575Z,53.48
2017-09-13T12:35:42.865Z,53.99
2017-09-13T12:36:42.579Z,52.93
2017-09-13T12:37:42.602Z,52.64
2017-09-13T12:38:42.632Z,52.06
2017-09-13T12:39:42.654Z,53.13
2017-09-13T12:40:42.689Z,53.03
2017-09-13T12:41:42.712Z,53.41
2017-09-13T12:42:43.049Z,53.99
2017-09-13T12:43:42.765Z,55.22
2017-09-13T12:44:42.790Z,54.44
2017-09-13T12:45:42.812Z,55.79
2017-09-13T12:46:42.850Z,56.09
2017-09-13T12:47:42.871Z,55.7
2017-09-13T12:48:42.894Z,54.93
2017-09-13T12:49:42.920Z,55.02
2017-09-13T12:50:42.995Z,54.83
2017-09-13T12:51:43.296Z,55.7
2017-09-13T12:52:42.998Z,56.47
2017-09-13T12:53:43.025Z,56.44
2017-09-13T12:54:43.052Z,57.37
2017-09-13T12:55:43.076Z,57.5